Time;durP1;ratioP1;P1;durP2;ratioP2;P2;SDS_P1;SDS_P2;PMS_P1;PMS_P2;Temp;Humidity;BMP_temperature;BMP_pressure;BME280_temperature;BME280_humidity;BME280_pressure;Samples;Min_cycle;Max_cycle;Signal;HPM_P1;HPM_P2
2021/08/25 00:01:22;;;;;;;6.85;4.57;;;23.70;69.50;;;;;;5033543;28;20024;-66
2021/08/25 00:03:48;;;;;;;7.25;4.47;;;23.70;69.40;;;;;;5033563;28;20033;-68
2021/08/25 00:06:14;;;;;;;8.75;4.65;;;23.70;69.20;;;;;;5033903;28;20071;-67
2021/08/25 00:08:39;;;;;;;8.32;4.10;;;23.70;69.30;;;;;;5015504;28;20104;-67
2021/08/25 00:11:05;;;;;;;9.20;4.63;;;23.70;69.40;;;;;;5033339;28;20179;-66
2021/08/25 00:13:31;;;;;;;10.45;4.78;;;23.70;69.40;;;;;;5032505;28;20032;-66
2021/08/25 00:15:56;;;;;;;10.23;4.95;;;23.70;69.30;;;;;;5033595;28;20021;-66
2021/08/25 00:18:22;;;;;;;10.32;4.50;;;23.60;69.50;;;;;;5033132;28;20455;-66
2021/08/25 00:20:48;;;;;;;8.15;4.80;;;23.60;69.60;;;;;;5033358;28;20455;-67
2021/08/25 00:23:13;;;;;;;9.73;4.88;;;23.60;69.50;;;;;;5033055;28;20039;-66
2021/08/25 00:25:39;;;;;;;6.65;4.10;;;23.60;69.50;;;;;;5033421;28;20127;-67
2021/08/25 00:28:05;;;;;;;8.98;3.90;;;23.50;69.40;;;;;;5034800;28;20022;-68
2021/08/25 00:30:30;;;;;;;11.50;4.40;;;23.50;69.40;;;;;;5016187;28;20038;-68
2021/08/25 00:32:56;;;;;;;8.50;4.57;;;23.50;69.60;;;;;;5033108;28;20025;-67
2021/08/25 00:35:22;;;;;;;8.32;4.43;;;23.50;69.60;;;;;;5032990;28;20030;-66
2021/08/25 00:37:47;;;;;;;9.90;4.22;;;23.50;69.50;;;;;;5033116;28;20034;-66
2021/08/25 00:40:14;;;;;;;16.10;5.15;;;23.50;69.40;;;;;;5033221;28;20109;-67
2021/08/25 00:42:40;;;;;;;10.82;4.65;;;23.50;70.00;;;;;;5033039;28;20101;-67
2021/08/25 00:45:10;;;;;;;9.45;5.45;;;23.50;70.00;;;;;;5032946;28;20124;-67
2021/08/25 00:47:40;;;;;;;8.93;4.53;;;23.50;70.00;;;;;;5032787;28;20060;-67
2021/08/25 00:50:07;;;;;;;9.73;4.80;;;23.50;69.30;;;;;;5032591;28;20054;-67
2021/08/25 00:52:41;;;;;;;11.35;4.45;;;23.40;70.10;;;;;;5032606;28;20105;-66
2021/08/25 00:55:07;;;;;;;9.48;4.30;;;23.40;70.30;;;;;;5033251;28;20020;-66
2021/08/25 00:57:36;;;;;;;8.77;4.65;;;23.40;70.40;;;;;;5032850;28;20038;-67
2021/08/25 01:00:06;;;;;;;8.50;4.50;;;23.50;70.40;;;;;;5032979;28;20029;-66
2021/08/25 01:02:49;;;;;;;8.30;4.53;;;23.40;70.10;;;;;;5032977;28;20140;-67
2021/08/25 01:05:16;;;;;;;10.32;4.40;;;23.40;71.10;;;;;;5032928;28;20017;-67
2021/08/25 01:07:42;;;;;;;8.88;4.18;;;23.40;70.30;;;;;;5032761;28;20442;-67
2021/08/25 01:10:22;;;;;;;8.77;4.57;;;23.40;70.70;;;;;;5032727;28;20113;-67
2021/08/25 01:12:47;;;;;;;12.82;4.50;;;23.40;70.30;;;;;;5033239;28;20454;-67
2021/08/25 01:15:13;;;;;;;7.97;4.68;;;23.40;71.50;;;;;;5032498;28;20026;-67
2021/08/25 01:17:39;;;;;;;8.82;4.65;;;23.30;70.90;;;;;;5032735;28;20025;-68
2021/08/25 01:20:12;;;;;;;10.63;4.55;;;23.20;71.10;;;;;;5032674;28;20049;-68
2021/08/25 01:22:41;;;;;;;13.25;5.15;;;23.20;71.50;;;;;;5032638;28;20034;-68
2021/08/25 01:25:09;;;;;;;12.13;4.82;;;23.20;71.80;;;;;;5033878;28;20018;-68
2021/08/25 01:27:40;;;;;;;8.35;4.70;;;23.10;71.80;;;;;;5036396;28;20033;-68
2021/08/25 01:30:07;;;;;;;7.47;4.70;;;23.10;72.00;;;;;;5036285;28;20037;-67
2021/08/25 01:32:37;;;;;;;10.18;5.05;;;23.10;71.70;;;;;;5036384;28;20496;-66
2021/08/25 01:35:03;;;;;;;10.27;5.03;;;23.20;71.60;;;;;;5036220;28;20025;-67
2021/08/25 01:37:29;;;;;;;10.75;6.07;;;23.20;71.50;;;;;;5036307;28;20014;-68
2021/08/25 01:39:59;;;;;;;10.23;4.85;;;23.10;71.90;;;;;;5036319;28;20460;-68
2021/08/25 01:42:24;;;;;;;9.23;4.88;;;23.10;70.70;;;;;;5036043;28;20051;-67
2021/08/25 01:44:51;;;;;;;6.85;4.63;;;23.10;71.80;;;;;;5036526;28;20510;-67
2021/08/25 01:47:18;;;;;;;7.18;4.80;;;23.10;72.00;;;;;;5036362;28;20371;-68
2021/08/25 01:49:44;;;;;;;9.50;4.60;;;23.00;72.30;;;;;;5035710;28;20111;-67
2021/08/25 01:52:11;;;;;;;7.68;4.82;;;23.00;72.50;;;;;;5036310;28;20026;-69
2021/08/25 01:54:37;;;;;;;9.20;4.60;;;23.00;72.30;;;;;;5036625;28;20049;-67
2021/08/25 01:57:07;;;;;;;12.40;4.82;;;23.00;72.30;;;;;;5037470;28;20057;-69
2021/08/25 01:59:34;;;;;;;8.27;4.80;;;23.10;71.00;;;;;;5035857;28;20013;-67
2021/08/25 02:01:59;;;;;;;9.30;4.57;;;23.00;71.90;;;;;;5035974;28;20112;-67
2021/08/25 02:04:25;;;;;;;9.70;4.82;;;23.00;71.80;;;;;;5035718;28;20112;-69
2021/08/25 02:06:53;;;;;;;8.32;4.70;;;23.00;71.70;;;;;;5035351;28;20048;-69
2021/08/25 02:09:20;;;;;;;9.77;4.93;;;23.00;71.90;;;;;;5035344;28;20116;-68
2021/08/25 02:11:45;;;;;;;11.45;4.80;;;23.00;72.20;;;;;;5035646;28;20029;-68
2021/08/25 02:14:11;;;;;;;9.10;5.13;;;22.90;72.30;;;;;;5035578;28;20025;-68
2021/08/25 02:16:37;;;;;;;7.50;5.30;;;23.00;72.30;;;;;;5035537;28;20037;-68
2021/08/25 02:19:03;;;;;;;9.05;4.90;;;23.00;72.30;;;;;;5035741;28;20026;-67
2021/08/25 02:21:28;;;;;;;8.23;4.53;;;23.00;72.30;;;;;;5035166;28;20025;-69
2021/08/25 02:23:54;;;;;;;13.05;4.97;;;22.90;72.10;;;;;;5035582;28;20030;-67
2021/08/25 02:26:20;;;;;;;7.60;4.60;;;22.90;72.30;;;;;;5035531;28;20028;-67
2021/08/25 02:28:47;;;;;;;9.32;4.80;;;22.90;72.50;;;;;;5035565;28;20021;-68
2021/08/25 02:31:13;;;;;;;9.73;5.15;;;23.00;72.60;;;;;;5018002;28;20402;-67
2021/08/25 02:33:40;;;;;;;8.23;4.90;;;23.00;72.30;;;;;;5035096;28;20542;-67
2021/08/25 02:36:07;;;;;;;8.13;5.07;;;23.00;73.60;;;;;;5034327;28;20044;-67
2021/08/25 02:38:34;;;;;;;8.90;5.05;;;23.00;73.20;;;;;;5034841;28;20025;-67
2021/08/25 02:41:00;;;;;;;7.05;4.57;;;23.00;72.00;;;;;;5035108;28;20044;-67
2021/08/25 02:43:26;;;;;;;10.43;6.00;;;23.00;71.90;;;;;;5034975;28;20041;-67
2021/08/25 02:45:52;;;;;;;7.63;5.25;;;23.00;72.30;;;;;;5035201;28;20033;-67
2021/08/25 02:48:18;;;;;;;9.02;5.22;;;22.90;72.40;;;;;;5035078;28;20443;-66
2021/08/25 02:50:44;;;;;;;14.00;5.70;;;22.90;72.60;;;;;;5034625;28;20073;-69
2021/08/25 02:53:09;;;;;;;9.23;5.30;;;23.00;72.50;;;;;;5035056;28;20483;-67
2021/08/25 02:55:35;;;;;;;9.93;5.22;;;23.00;72.50;;;;;;5034943;28;20030;-67
2021/08/25 02:58:01;;;;;;;9.55;5.28;;;22.90;72.50;;;;;;5034846;28;20037;-67
2021/08/25 03:00:26;;;;;;;9.10;5.15;;;22.90;72.70;;;;;;5034824;28;20478;-66
2021/08/25 03:02:52;;;;;;;10.05;5.63;;;22.90;72.90;;;;;;5034561;28;20021;-67
2021/08/25 03:05:18;;;;;;;9.82;5.10;;;22.90;73.10;;;;;;5034754;28;20029;-66
2021/08/25 03:07:44;;;;;;;7.03;5.18;;;22.80;74.00;;;;;;5016838;28;20029;-67
2021/08/25 03:10:10;;;;;;;10.05;5.10;;;22.80;73.40;;;;;;5034542;28;20072;-68
2021/08/25 03:12:36;;;;;;;9.18;4.88;;;22.80;73.20;;;;;;5034215;28;20075;-65
2021/08/25 03:15:05;;;;;;;7.20;4.70;;;22.80;73.40;;;;;;5034639;28;20496;-68
2021/08/25 03:17:30;;;;;;;7.50;4.32;;;22.80;73.00;;;;;;5034450;28;20030;-67
2021/08/25 03:19:56;;;;;;;9.50;4.70;;;22.80;72.80;;;;;;5034735;28;20021;-68
2021/08/25 03:22:22;;;;;;;8.40;4.85;;;22.80;72.50;;;;;;5034276;28;20025;-66
2021/08/25 03:24:48;;;;;;;8.02;4.78;;;22.80;72.10;;;;;;5034255;28;20028;-68
2021/08/25 03:27:14;;;;;;;9.18;4.43;;;22.80;72.20;;;;;;5034475;28;20444;-67
2021/08/25 03:29:40;;;;;;;7.20;4.45;;;22.70;72.10;;;;;;5034078;28;20026;-67
2021/08/25 03:32:06;;;;;;;7.07;4.47;;;22.70;72.30;;;;;;5034295;28;20029;-67
2021/08/25 03:34:32;;;;;;;7.88;4.82;;;22.70;71.80;;;;;;5033968;28;20017;-67
2021/08/25 03:36:57;;;;;;;8.60;4.60;;;22.70;71.70;;;;;;5034134;28;20486;-68
2021/08/25 03:39:23;;;;;;;6.82;4.72;;;22.70;71.40;;;;;;5033976;28;20036;-66
2021/08/25 03:41:49;;;;;;;8.50;4.60;;;22.70;71.70;;;;;;5034264;28;20029;-68
2021/08/25 03:44:14;;;;;;;6.75;4.03;;;22.70;71.20;;;;;;5034395;28;20017;-67
2021/08/25 03:46:40;;;;;;;11.80;4.70;;;22.70;71.30;;;;;;5033815;28;20471;-68
2021/08/25 03:49:06;;;;;;;8.40;4.70;;;22.60;71.30;;;;;;5033542;28;20121;-67
2021/08/25 03:51:32;;;;;;;9.18;4.00;;;22.60;71.20;;;;;;5033858;28;20506;-68
2021/08/25 03:53:57;;;;;;;9.60;4.65;;;22.60;71.40;;;;;;5033711;28;20058;-66
2021/08/25 03:56:23;;;;;;;11.20;4.60;;;22.60;71.30;;;;;;5033944;28;20025;-67
2021/08/25 03:58:49;;;;;;;7.72;4.32;;;22.60;71.00;;;;;;5033827;28;20053;-67
2021/08/25 04:01:15;;;;;;;6.13;3.60;;;22.60;70.80;;;;;;5033935;28;20067;-68
2021/08/25 04:03:41;;;;;;;7.65;4.15;;;22.50;70.50;;;;;;5033786;28;20025;-68
2021/08/25 04:06:06;;;;;;;9.23;4.35;;;22.50;70.30;;;;;;5033563;28;20036;-67
2021/08/25 04:08:32;;;;;;;5.88;3.83;;;22.40;70.30;;;;;;5033596;28;20071;-67
2021/08/25 04:10:58;;;;;;;6.85;4.05;;;22.50;70.50;;;;;;5033586;28;20041;-68
2021/08/25 04:13:23;;;;;;;10.43;4.80;;;22.50;70.10;;;;;;5033380;28;20108;-67
2021/08/25 04:15:49;;;;;;;8.05;4.18;;;22.40;70.30;;;;;;5033483;28;20375;-67
2021/08/25 04:18:15;;;;;;;10.23;4.25;;;22.40;70.30;;;;;;5033098;28;20018;-69
2021/08/25 04:20:41;;;;;;;7.22;4.32;;;22.50;70.10;;;;;;5033241;28;20021;-68
2021/08/25 04:23:06;;;;;;;8.93;4.60;;;22.50;69.90;;;;;;5015571;28;20481;-69
2021/08/25 04:25:32;;;;;;;8.35;4.53;;;22.40;69.70;;;;;;5033152;28;20037;-69
2021/08/25 04:27:58;;;;;;;8.43;4.00;;;22.40;70.00;;;;;;5033141;28;20030;-68
2021/08/25 04:30:23;;;;;;;7.43;4.13;;;22.40;70.10;;;;;;5034728;28;20140;-67
2021/08/25 04:32:49;;;;;;;7.93;3.88;;;22.40;69.90;;;;;;5033311;28;20438;-67
2021/08/25 04:35:15;;;;;;;9.52;3.97;;;22.40;70.00;;;;;;5033109;28;20441;-67
2021/08/25 04:37:40;;;;;;;9.40;4.20;;;22.40;70.10;;;;;;5032898;28;20425;-68
2021/08/25 04:40:07;;;;;;;9.95;4.30;;;22.40;69.60;;;;;;5032996;28;20529;-68
2021/08/25 04:42:32;;;;;;;7.13;4.03;;;22.40;69.80;;;;;;5033623;28;20471;-68
2021/08/25 04:44:58;;;;;;;6.32;4.18;;;22.40;70.00;;;;;;5033275;28;20034;-66
2021/08/25 04:47:24;;;;;;;6.75;4.38;;;22.40;70.00;;;;;;5033012;28;20483;-68
2021/08/25 04:49:49;;;;;;;9.20;4.07;;;22.40;70.20;;;;;;5032700;28;20375;-67
2021/08/25 04:52:15;;;;;;;6.72;4.50;;;22.50;70.10;;;;;;5033348;28;20421;-68
2021/08/25 04:54:41;;;;;;;9.70;4.50;;;22.50;70.20;;;;;;5032939;28;20030;-69
2021/08/25 04:57:07;;;;;;;7.78;4.03;;;22.50;70.10;;;;;;5033057;28;20061;-67
2021/08/25 04:59:32;;;;;;;7.10;4.28;;;22.50;70.10;;;;;;5033224;28;20079;-67
2021/08/25 05:01:58;;;;;;;14.63;4.50;;;22.50;70.20;;;;;;5036771;28;20036;-68
2021/08/25 05:04:24;;;;;;;9.73;4.18;;;22.50;70.20;;;;;;5036796;28;20083;-68
2021/08/25 05:06:50;;;;;;;7.53;4.60;;;22.60;70.30;;;;;;5036975;28;20022;-69
2021/08/25 05:09:15;;;;;;;9.43;4.57;;;22.60;70.10;;;;;;5036955;28;20486;-68
2021/08/25 05:11:41;;;;;;;12.52;4.57;;;22.60;69.90;;;;;;5036897;28;20026;-68
2021/08/25 05:14:06;;;;;;;9.20;4.63;;;22.70;70.00;;;;;;5036750;28;20045;-68
2021/08/25 05:16:32;;;;;;;12.15;4.82;;;22.60;69.90;;;;;;5036838;28;20030;-68
2021/08/25 05:18:58;;;;;;;8.15;4.25;;;22.70;70.10;;;;;;5036623;28;20093;-68
2021/08/25 05:21:24;;;;;;;7.63;4.30;;;22.70;69.90;;;;;;5036860;28;20025;-68
2021/08/25 05:23:49;;;;;;;10.63;4.45;;;22.70;69.70;;;;;;5018931;28;20026;-67
2021/08/25 05:26:15;;;;;;;8.40;4.10;;;22.70;69.70;;;;;;5036802;28;20105;-68
2021/08/25 05:28:41;;;;;;;12.00;4.43;;;22.70;70.60;;;;;;5036772;28;20036;-69
2021/08/25 05:31:06;;;;;;;6.60;4.25;;;22.70;70.20;;;;;;5037098;28;20060;-68
2021/08/25 05:33:32;;;;;;;8.35;4.10;;;22.80;70.20;;;;;;5036622;28;20040;-67
2021/08/25 05:35:59;;;;;;;8.48;4.03;;;22.80;70.10;;;;;;5036809;28;20402;-68
2021/08/25 05:38:25;;;;;;;6.20;4.00;;;22.80;70.00;;;;;;5036183;28;20060;-70
2021/08/25 05:40:51;;;;;;;8.18;4.40;;;22.70;70.30;;;;;;5035956;28;20025;-69
2021/08/25 05:43:17;;;;;;;7.63;3.78;;;22.70;68.50;;;;;;5035922;28;20364;-68
2021/08/25 05:45:44;;;;;;;8.60;3.83;;;22.70;69.30;;;;;;5036022;28;20029;-68
2021/08/25 05:48:09;;;;;;;8.65;4.30;;;22.80;69.80;;;;;;5036020;28;20129;-67
2021/08/25 05:50:35;;;;;;;8.70;4.80;;;22.80;69.40;;;;;;5035725;28;20133;-67
2021/08/25 05:53:01;;;;;;;8.50;4.25;;;22.90;68.10;;;;;;5035954;28;20025;-67
2021/08/25 05:55:26;;;;;;;8.57;4.20;;;22.90;68.40;;;;;;5035862;28;20032;-67
2021/08/25 05:57:52;;;;;;;7.45;3.90;;;23.00;68.10;;;;;;5035750;28;20017;-67
2021/08/25 06:00:20;;;;;;;7.45;4.10;;;23.30;67.40;;;;;;5035684;28;20032;-67
2021/08/25 06:02:46;;;;;;;9.73;3.88;;;23.50;66.60;;;;;;5035714;28;20032;-66
2021/08/25 06:05:13;;;;;;;8.85;4.03;;;23.70;65.60;;;;;;5035615;28;20030;-69
2021/08/25 06:07:40;;;;;;;6.38;3.58;;;23.90;65.40;;;;;;5035215;28;20170;-68
2021/08/25 06:10:07;;;;;;;10.15;3.92;;;24.00;64.70;;;;;;5035463;28;20104;-66
2021/08/25 06:12:33;;;;;;;6.72;3.42;;;24.30;64.00;;;;;;5033749;28;20498;-67
2021/08/25 06:14:59;;;;;;;7.55;3.90;;;24.50;63.50;;;;;;5035345;28;20411;-67
2021/08/25 06:17:25;;;;;;;9.82;3.80;;;24.70;63.30;;;;;;5035348;28;20095;-68
2021/08/25 06:19:51;;;;;;;8.68;3.70;;;24.90;62.80;;;;;;5035185;28;20421;-67
2021/08/25 06:22:17;;;;;;;5.10;2.95;;;25.00;62.30;;;;;;5017403;28;20391;-67
2021/08/25 06:24:43;;;;;;;7.40;3.70;;;25.10;62.10;;;;;;5034955;28;20032;-68
2021/08/25 06:27:09;;;;;;;11.20;4.00;;;25.30;61.70;;;;;;5035003;28;20109;-68
2021/08/25 06:29:35;;;;;;;7.05;3.40;;;25.40;61.40;;;;;;5034849;28;20060;-67
2021/08/25 06:32:01;;;;;;;10.93;3.38;;;25.50;60.80;;;;;;5035175;28;20038;-67
2021/08/25 06:34:27;;;;;;;7.10;3.78;;;25.70;60.00;;;;;;5034929;28;20543;-68
2021/08/25 06:36:52;;;;;;;6.95;3.50;;;25.90;59.80;;;;;;5035033;28;20038;-67
2021/08/25 06:39:18;;;;;;;8.35;3.25;;;25.90;59.20;;;;;;5034981;28;20036;-67
2021/08/25 06:41:44;;;;;;;5.57;3.40;;;25.90;58.80;;;;;;5035515;28;20033;-68
2021/08/25 06:44:09;;;;;;;9.00;3.58;;;26.00;58.70;;;;;;5034681;28;20063;-68
2021/08/25 06:46:35;;;;;;;11.13;3.25;;;26.10;58.30;;;;;;5035106;28;20025;-69
2021/08/25 06:49:01;;;;;;;9.43;3.00;;;26.20;57.50;;;;;;5034788;28;20068;-68
2021/08/25 06:51:26;;;;;;;6.82;3.28;;;26.30;57.30;;;;;;5034750;28;20033;-69
2021/08/25 06:53:52;;;;;;;7.28;3.25;;;26.30;57.20;;;;;;5034609;28;20025;-69
2021/08/25 06:56:18;;;;;;;6.18;3.55;;;26.40;56.60;;;;;;5034789;28;20030;-68
2021/08/25 06:58:43;;;;;;;9.68;3.67;;;26.50;56.60;;;;;;5034592;28;20035;-68
2021/08/25 07:01:09;;;;;;;8.25;3.35;;;26.50;56.40;;;;;;5034494;28;20100;-67
2021/08/25 07:03:36;;;;;;;7.45;3.05;;;26.60;56.50;;;;;;5034628;28;20455;-70
2021/08/25 07:06:02;;;;;;;5.40;3.30;;;26.70;55.90;;;;;;5034640;28;20540;-68
2021/08/25 07:08:27;;;;;;;9.32;3.63;;;26.70;56.00;;;;;;5034412;28;20026;-69
2021/08/25 07:10:53;;;;;;;6.75;3.15;;;26.70;55.90;;;;;;5034610;28;20087;-68
2021/08/25 07:13:19;;;;;;;6.68;3.60;;;26.70;55.90;;;;;;5034488;28;20025;-69
2021/08/25 07:15:45;;;;;;;6.88;3.60;;;26.80;55.60;;;;;;5034303;28;20493;-67
2021/08/25 07:18:10;;;;;;;5.85;3.38;;;26.90;55.40;;;;;;5034142;28;20026;-68
2021/08/25 07:20:36;;;;;;;7.65;3.20;;;27.00;55.10;;;;;;5034364;28;20021;-69
2021/08/25 07:23:01;;;;;;;9.52;3.42;;;27.10;54.60;;;;;;5033672;28;20418;-68
2021/08/25 07:25:27;;;;;;;8.52;3.30;;;27.30;54.70;;;;;;5034190;28;20024;-68
2021/08/25 07:27:53;;;;;;;9.20;3.45;;;27.30;54.30;;;;;;5034377;28;20041;-69
2021/08/25 07:30:18;;;;;;;10.90;3.55;;;27.30;54.50;;;;;;5034176;28;20033;-69
2021/08/25 07:32:44;;;;;;;8.82;3.90;;;27.30;54.30;;;;;;5034579;28;20072;-70
2021/08/25 07:35:11;;;;;;;11.10;4.13;;;27.50;54.20;;;;;;5036249;28;20014;-70
2021/08/25 07:37:37;;;;;;;14.10;4.05;;;27.60;53.90;;;;;;5034849;28;20021;-67
2021/08/25 07:40:05;;;;;;;17.77;4.47;;;27.70;53.80;;;;;;5035345;28;20049;-69
2021/08/25 07:42:31;;;;;;;6.75;3.25;;;27.90;53.90;;;;;;5034430;28;20029;-67
2021/08/25 07:44:57;;;;;;;5.20;3.20;;;27.90;53.30;;;;;;5034018;28;20104;-70
2021/08/25 07:47:23;;;;;;;7.05;3.28;;;27.90;53.60;;;;;;5033766;28;20490;-68
2021/08/25 07:49:49;;;;;;;8.48;3.28;;;27.90;53.30;;;;;;5033508;28;20045;-69
2021/08/25 07:52:14;;;;;;;6.82;3.22;;;27.90;53.30;;;;;;5033695;28;20387;-68
2021/08/25 07:54:40;;;;;;;9.40;3.38;;;27.90;53.10;;;;;;5033557;28;20428;-69
2021/08/25 07:57:06;;;;;;;6.70;2.92;;;27.90;53.00;;;;;;5033641;28;20040;-69
2021/08/25 07:59:32;;;;;;;7.18;3.22;;;27.90;52.90;;;;;;5033773;28;20021;-68
2021/08/25 08:01:57;;;;;;;6.43;3.35;;;27.90;52.80;;;;;;5033928;28;20108;-70
2021/08/25 08:04:24;;;;;;;11.85;3.67;;;27.80;52.80;;;;;;5033421;28;20032;-67
2021/08/25 08:06:50;;;;;;;8.52;3.17;;;27.70;52.80;;;;;;5033383;28;20030;-69
2021/08/25 08:09:15;;;;;;;7.43;3.58;;;27.70;53.00;;;;;;5033243;28;20029;-68
2021/08/25 08:11:41;;;;;;;5.60;3.05;;;27.60;53.50;;;;;;5015353;28;20434;-69
2021/08/25 08:14:07;;;;;;;10.95;4.25;;;27.60;53.80;;;;;;5033508;28;20028;-69
2021/08/25 08:16:36;;;;;;;7.38;3.75;;;27.50;53.70;;;;;;5033365;28;20080;-67
2021/08/25 08:19:28;;;;;;;15.52;3.90;;;27.40;54.10;;;;;;5033440;28;20331;-67
2021/08/25 08:21:54;;;;;;;9.95;4.18;;;27.40;53.90;;;;;;5033132;28;20025;-68
2021/08/25 08:24:20;;;;;;;9.65;3.55;;;27.40;54.20;;;;;;5033041;28;20435;-69
2021/08/25 08:26:47;;;;;;;11.65;3.78;;;27.30;54.60;;;;;;5033223;28;20024;-69
2021/08/25 08:29:13;;;;;;;9.68;3.88;;;27.30;54.40;;;;;;5033038;28;20018;-70
2021/08/25 08:31:39;;;;;;;5.65;3.15;;;27.20;54.40;;;;;;5032876;28;20041;-69
2021/08/25 08:34:04;;;;;;;12.40;3.78;;;27.20;55.60;;;;;;5032592;28;20363;-69
2021/08/25 08:36:30;;;;;;;8.88;3.40;;;27.10;54.80;;;;;;5032922;28;20108;-68
2021/08/25 08:38:56;;;;;;;6.07;3.53;;;27.10;55.10;;;;;;5033001;28;20026;-68
2021/08/25 08:41:22;;;;;;;8.77;3.50;;;27.00;55.30;;;;;;5033114;28;20018;-69
2021/08/25 08:43:51;;;;;;;11.13;4.18;;;27.00;55.60;;;;;;5032863;28;20025;-68
2021/08/25 08:46:19;;;;;;;6.28;3.53;;;27.00;55.20;;;;;;5032908;28;20021;-68
2021/08/25 08:48:45;;;;;;;11.00;3.90;;;27.00;55.30;;;;;;5032994;28;20470;-68
2021/08/25 08:51:12;;;;;;;7.43;3.58;;;27.00;55.40;;;;;;5032639;28;20140;-69
2021/08/25 08:53:38;;;;;;;8.35;4.18;;;27.10;55.40;;;;;;5032900;28;20372;-69
2021/08/25 08:56:04;;;;;;;7.07;3.42;;;27.10;55.70;;;;;;5032926;28;20080;-68
2021/08/25 08:58:30;;;;;;;9.10;4.05;;;27.10;55.70;;;;;;5032973;28;20049;-69
2021/08/25 09:00:56;;;;;;;7.60;4.00;;;27.10;56.00;;;;;;5032972;28;20060;-68
2021/08/25 09:03:27;;;;;;;7.63;3.80;;;27.10;56.40;;;;;;5032500;28;20478;-67
2021/08/25 09:06:04;;;;;;;7.40;4.13;;;27.10;56.30;;;;;;5032656;28;20026;-66
2021/08/25 09:08:31;;;;;;;6.68;3.80;;;27.10;56.70;;;;;;5033272;28;20036;-68
2021/08/25 09:11:02;;;;;;;8.00;4.00;;;27.10;56.70;;;;;;5033960;28;20025;-67
2021/08/25 09:13:34;;;;;;;11.50;4.57;;;27.20;56.80;;;;;;5033675;28;20030;-68
2021/08/25 09:16:01;;;;;;;8.38;4.80;;;27.20;57.30;;;;;;5032848;28;20033;-68
2021/08/25 09:18:26;;;;;;;7.97;3.83;;;27.30;57.30;;;;;;5032383;28;20021;-68
2021/08/25 09:20:52;;;;;;;7.20;4.13;;;27.30;57.40;;;;;;5032598;28;20052;-68
2021/08/25 09:23:23;;;;;;;17.17;5.57;;;27.30;57.40;;;;;;5014936;28;20422;-68
2021/08/25 09:25:55;;;;;;;6.22;4.47;;;27.40;57.70;;;;;;5014646;28;20029;-69
2021/08/25 09:28:28;;;;;;;8.65;5.00;;;27.50;57.80;;;;;;5032432;28;20033;-67
2021/08/25 09:30:55;;;;;;;10.60;4.60;;;27.50;58.60;;;;;;5032493;28;20043;-68
2021/08/25 09:33:25;;;;;;;11.68;4.80;;;27.50;58.40;;;;;;5032538;28;20043;-67
2021/08/25 09:35:54;;;;;;;12.10;5.03;;;27.60;58.80;;;;;;5032384;28;20037;-68
2021/08/25 09:38:22;;;;;;;7.53;4.25;;;27.50;59.20;;;;;;5033696;28;20037;-67
2021/08/25 09:40:53;;;;;;;9.15;4.20;;;27.50;58.90;;;;;;5032432;28;20471;-66
2021/08/25 09:43:42;;;;;;;10.38;6.25;;;27.60;59.00;;;;;;5032660;28;20538;-69
2021/08/25 09:46:14;;;;;;;8.10;4.80;;;27.60;59.70;;;;;;5033563;28;20034;-68
2021/08/25 09:48:44;;;;;;;8.15;4.63;;;27.70;59.00;;;;;;5035978;28;20437;-67
2021/08/25 09:51:11;;;;;;;11.45;5.30;;;27.70;58.80;;;;;;5036186;28;20033;-66
2021/08/25 09:53:38;;;;;;;13.10;4.90;;;27.80;58.80;;;;;;5035892;28;20022;-70
2021/08/25 09:56:32;;;;;;;8.32;4.28;;;27.80;58.30;;;;;;5036080;28;20026;-68
2021/08/25 09:58:58;;;;;;;9.75;4.68;;;27.90;59.30;;;;;;5036128;28;20494;-66
2021/08/25 10:01:25;;;;;;;10.65;4.72;;;27.90;58.00;;;;;;5036157;28;20503;-69
2021/08/25 10:03:51;;;;;;;11.35;4.97;;;28.10;57.80;;;;;;5035913;28;20029;-69
2021/08/25 10:06:20;;;;;;;9.32;4.78;;;28.10;57.60;;;;;;5036259;28;20359;-69
2021/08/25 10:08:46;;;;;;;10.27;5.30;;;28.20;57.40;;;;;;5036095;28;20075;-69
2021/08/25 10:11:14;;;;;;;9.63;4.65;;;28.20;57.50;;;;;;5035833;28;20036;-66
2021/08/25 10:13:40;;;;;;;10.45;4.53;;;28.20;57.10;;;;;;5035671;28;20124;-69
2021/08/25 10:16:11;;;;;;;8.98;4.80;;;28.20;56.90;;;;;;5035975;28;20041;-69
2021/08/25 10:18:37;;;;;;;9.88;5.65;;;28.20;57.00;;;;;;5035730;28;20025;-68
2021/08/25 10:21:24;;;;;;;9.10;4.93;;;28.20;57.30;;;;;;5035543;28;20040;-69
2021/08/25 10:23:58;;;;;;;25.00;5.28;;;28.30;56.60;;;;;;5035607;28;20079;-67
2021/08/25 10:26:28;;;;;;;12.35;5.03;;;28.40;57.90;;;;;;5018226;28;20439;-68
2021/08/25 10:29:03;;;;;;;13.77;5.78;;;28.40;56.30;;;;;;5035715;28;20363;-68
2021/08/25 10:31:53;;;;;;;10.77;5.05;;;28.50;56.20;;;;;;5035375;28;20041;-69
2021/08/25 10:34:21;;;;;;;15.18;5.50;;;28.50;57.90;;;;;;5035082;28;20067;-69
2021/08/25 10:36:47;;;;;;;14.30;5.50;;;28.60;55.90;;;;;;5017797;28;20104;-68
2021/08/25 10:39:32;;;;;;;11.27;5.15;;;28.70;55.80;;;;;;5035222;28;20025;-68
2021/08/25 10:41:59;;;;;;;12.57;5.72;;;28.80;55.70;;;;;;5035397;28;20037;-69
2021/08/25 10:44:49;;;;;;;8.63;5.18;;;28.80;55.60;;;;;;5035018;28;20454;-70
2021/08/25 10:47:17;;;;;;;12.02;5.22;;;28.90;55.40;;;;;;5024690;28;20116;-69
2021/08/25 10:49:45;;;;;;;10.65;5.32;;;28.90;55.50;;;;;;5034448;28;20049;-68
2021/08/25 10:52:14;;;;;;;10.48;5.65;;;28.90;55.30;;;;;;5017118;28;20025;-68
2021/08/25 10:54:44;;;;;;;9.32;5.20;;;28.90;55.70;;;;;;5034849;28;20064;-67
2021/08/25 10:57:15;;;;;;;9.30;5.60;;;29.00;56.60;;;;;;5034187;28;20041;-68
2021/08/25 10:59:41;;;;;;;10.70;5.30;;;29.10;55.40;;;;;;5034679;28;20105;-69
2021/08/25 11:02:07;;;;;;;10.90;5.03;;;29.20;55.30;;;;;;5034504;28;20443;-68
2021/08/25 11:04:33;;;;;;;9.07;5.00;;;29.20;54.90;;;;;;5034314;28;20037;-69
2021/08/25 11:07:05;;;;;;;10.23;5.45;;;29.30;55.20;;;;;;5034507;28;20025;-69
2021/08/25 11:09:41;;;;;;;12.20;5.22;;;29.30;55.00;;;;;;5034514;28;20025;-68
2021/08/25 11:12:16;;;;;;;9.20;5.20;;;29.40;55.70;;;;;;5016708;28;20102;-68
2021/08/25 11:14:47;;;;;;;10.52;5.28;;;29.40;54.40;;;;;;5034451;28;20459;-69
2021/08/25 11:17:18;;;;;;;9.50;5.72;;;29.50;54.50;;;;;;5034545;28;20029;-70
2021/08/25 11:19:45;;;;;;;9.73;5.40;;;29.60;54.30;;;;;;5034529;28;20180;-69
2021/08/25 11:22:23;;;;;;;8.75;5.32;;;29.70;54.20;;;;;;5034182;28;20030;-69
2021/08/25 11:24:55;;;;;;;8.82;5.28;;;29.80;54.10;;;;;;5034396;28;20026;-69
2021/08/25 11:27:25;;;;;;;9.18;5.18;;;29.90;53.80;;;;;;5033896;28;20494;-68
2021/08/25 11:30:17;;;;;;;8.75;5.45;;;30.00;53.80;;;;;;5034053;28;20029;-69
2021/08/25 11:32:54;;;;;;;10.40;5.05;;;30.10;53.30;;;;;;5033888;28;20049;-69
2021/08/25 11:35:34;;;;;;;9.35;5.03;;;30.10;53.30;;;;;;5034051;28;20018;-69
2021/08/25 11:38:08;;;;;;;8.75;5.38;;;30.20;53.00;;;;;;5015984;28;20075;-69
2021/08/25 11:40:40;;;;;;;12.82;5.80;;;30.20;53.10;;;;;;5033913;28;20057;-69
2021/08/25 11:43:21;;;;;;;8.43;5.60;;;30.30;53.00;;;;;;5033840;28;20558;-70
2021/08/25 11:45:55;;;;;;;11.15;5.78;;;30.50;52.90;;;;;;5033869;28;20021;-69
2021/08/25 11:48:26;;;;;;;11.65;5.88;;;30.60;52.90;;;;;;5033819;28;20033;-69
2021/08/25 11:50:52;;;;;;;12.55;5.90;;;30.70;52.80;;;;;;5033293;28;20098;-69
2021/08/25 11:53:19;;;;;;;11.45;6.63;;;30.70;52.80;;;;;;5033444;28;20064;-67
2021/08/25 11:55:47;;;;;;;9.52;5.45;;;30.80;52.50;;;;;;5015781;28;20026;-68
2021/08/25 11:58:30;;;;;;;10.25;5.00;;;30.80;52.50;;;;;;5033736;28;20075;-67
2021/08/25 12:00:57;;;;;;;10.07;5.93;;;30.80;52.10;;;;;;5033386;28;20539;-70
2021/08/25 12:03:43;;;;;;;10.00;5.75;;;30.90;52.40;;;;;;5033120;28;20021;-68
2021/08/25 12:06:11;;;;;;;8.10;5.25;;;31.00;52.10;;;;;;5033560;28;20091;-68
2021/08/25 12:08:42;;;;;;;9.80;5.53;;;31.10;52.20;;;;;;5033352;28;20032;-69
2021/08/25 12:11:10;;;;;;;9.32;5.22;;;31.20;52.30;;;;;;5033267;28;20127;-69
2021/08/25 12:13:44;;;;;;;10.40;5.45;;;31.10;52.40;;;;;;5033402;28;20064;-68
2021/08/25 12:16:31;;;;;;;10.27;5.38;;;31.10;52.50;;;;;;5033253;28;20025;-71
2021/08/25 12:18:59;;;;;;;9.52;5.35;;;31.00;52.30;;;;;;5033246;28;20037;-68
2021/08/25 12:21:32;;;;;;;8.02;5.30;;;31.00;53.40;;;;;;5033206;28;20017;-67
2021/08/25 12:24:11;;;;;;;12.18;5.30;;;30.80;52.40;;;;;;5033064;28;20029;-68
2021/08/25 12:26:40;;;;;;;12.20;5.65;;;30.80;52.50;;;;;;5033065;28;20025;-69
2021/08/25 12:29:08;;;;;;;16.85;5.93;;;30.70;53.00;;;;;;5033208;28;20026;-69
2021/08/25 12:31:35;;;;;;;23.02;5.97;;;30.70;53.20;;;;;;5033031;28;20029;-67
2021/08/25 12:34:05;;;;;;;7.50;4.90;;;30.70;53.40;;;;;;5033227;28;20025;-69
2021/08/25 12:36:36;;;;;;;10.02;5.40;;;30.80;53.20;;;;;;5033940;28;20022;-69
2021/08/25 12:39:12;;;;;;;12.82;5.72;;;30.90;53.10;;;;;;5033958;28;20029;-68
2021/08/25 12:41:40;;;;;;;9.95;5.43;;;31.10;52.50;;;;;;5033047;28;20040;-68
2021/08/25 12:44:07;;;;;;;14.68;7.07;;;31.20;53.60;;;;;;5033946;28;20028;-69
2021/08/25 12:46:52;;;;;;;10.68;6.22;;;31.20;53.40;;;;;;5033744;28;20021;-68